KAYS/AYS METAR and TAF weather

Enter ICAO airport designator
Station Type Date Time Source
KAYS METAR 2020/11/27 14:35 UTC NOAA

KAYS 271435Z AUTO 33005KT 10SM OVC004 20/17 A3016 RMK AO2 T01980171


Station Type Date Time Source
KAYS Decoded METAR 2020/11/27 14:35 UTC NOAA

Waycross / Ware County, Ga, GA, United States (KAYS) 31-15N 082-24W 46M
Nov 27, 2020 - 09:35 AM EST / 2020.11.27 1435 UTC
Wind: from the NNW (330 degrees) at 6 MPH (5 KT):0
Visibility: 10 mile(s):0
Sky conditions: overcast
Temperature: 67.6 F (19.8 C)
Dew Point: 62.8 F (17.1 C)
Relative Humidity: 84%
Pressure (altimeter): 30.16 in. Hg (1021 hPa)
ob: KAYS 271435Z AUTO 33005KT 10SM OVC004 20/17 A3016 RMK AO2 T01980171
cycle: 14

Station Type Date Time Source
KAYS TAF UTC NOAA

Error!

Example: see airport list